createdAt,value
2018-09-18T00:01:18.784Z,90.00
2018-09-18T00:03:46.899Z,89.70
2018-09-18T00:06:14.894Z,89.40
2018-09-18T00:08:42.925Z,88.60
2018-09-18T00:11:10.972Z,89.30
2018-09-18T00:13:38.965Z,89.80
2018-09-18T00:16:06.965Z,88.60
2018-09-18T00:18:34.975Z,90.00
2018-09-18T00:21:03.664Z,90.00
2018-09-18T00:23:31.667Z,88.50
2018-09-18T00:25:59.983Z,89.60
2018-09-18T00:28:27.932Z,89.60
2018-09-18T00:30:56.017Z,90.40
2018-09-18T00:33:24.164Z,90.80
2018-09-18T00:35:52.245Z,91.10
2018-09-18T00:38:20.434Z,91.20
2018-09-18T00:40:48.330Z,91.20
2018-09-18T00:43:16.391Z,91.30
2018-09-18T00:45:44.497Z,90.80
2018-09-18T00:48:13.292Z,91.00
2018-09-18T00:50:41.347Z,91.20
2018-09-18T00:53:09.344Z,91.30
2018-09-18T00:55:37.263Z,91.10
2018-09-18T00:58:05.285Z,91.00
2018-09-18T01:00:33.346Z,90.90
2018-09-18T01:03:02.388Z,91.20
2018-09-18T01:05:30.363Z,91.40
2018-09-18T01:07:58.390Z,91.20
2018-09-18T01:10:26.632Z,91.40
2018-09-18T01:12:54.705Z,91.40
2018-09-18T01:15:23.517Z,91.30
2018-09-18T01:17:51.451Z,91.50
2018-09-18T01:20:19.578Z,91.50
2018-09-18T01:22:47.633Z,91.90
2018-09-18T01:25:15.704Z,91.50
2018-09-18T01:27:43.730Z,91.50
2018-09-18T01:30:11.701Z,92.00
2018-09-18T01:32:40.530Z,92.40
2018-09-18T01:35:08.523Z,92.00
2018-09-18T01:37:36.505Z,92.20
2018-09-18T01:40:05.046Z,92.20
2018-09-18T01:42:33.554Z,92.30
2018-09-18T01:45:02.175Z,92.60
2018-09-18T01:47:30.128Z,92.30
2018-09-18T01:49:58.088Z,92.10
2018-09-18T01:52:26.110Z,92.50
2018-09-18T01:54:54.120Z,92.10
2018-09-18T01:57:22.208Z,91.60
2018-09-18T01:59:51.175Z,92.30
2018-09-18T02:02:19.307Z,92.40
2018-09-18T02:04:47.405Z,92.30
2018-09-18T02:07:15.386Z,92.20
2018-09-18T02:09:44.133Z,92.40
2018-09-18T02:12:12.142Z,92.00
2018-09-18T02:14:40.153Z,91.80
2018-09-18T02:17:08.184Z,91.90
2018-09-18T02:19:36.248Z,91.80
2018-09-18T02:22:04.267Z,91.80
2018-09-18T02:24:32.280Z,91.70
2018-09-18T02:27:00.465Z,91.90
2018-09-18T02:29:28.618Z,91.80
2018-09-18T02:31:56.615Z,91.70
2018-09-18T02:34:24.633Z,92.00
2018-09-18T02:36:53.100Z,91.80
2018-09-18T02:39:21.245Z,92.30
2018-09-18T02:41:50.275Z,92.50
2018-09-18T02:44:18.469Z,92.40
2018-09-18T02:46:46.553Z,92.40
2018-09-18T02:49:14.498Z,92.00
2018-09-18T02:51:42.500Z,93.00
2018-09-18T02:54:10.524Z,93.10
2018-09-18T02:56:39.447Z,93.60
2018-09-18T02:59:07.670Z,93.30
2018-09-18T03:01:35.864Z,93.20
2018-09-18T03:04:03.926Z,92.90
2018-09-18T03:06:31.943Z,93.10
2018-09-18T03:09:00.117Z,93.20
2018-09-18T03:11:28.143Z,93.00
2018-09-18T03:13:56.215Z,93.20
2018-09-18T03:16:24.216Z,93.50
2018-09-18T03:18:52.174Z,93.20
2018-09-18T03:21:20.208Z,93.50
2018-09-18T03:23:48.356Z,93.70
2018-09-18T03:26:16.380Z,92.90
2018-09-18T03:28:44.366Z,93.10
2018-09-18T03:31:13.445Z,92.90
2018-09-18T03:33:41.475Z,93.30
2018-09-18T03:36:09.412Z,93.30
2018-09-18T03:38:37.378Z,93.40
2018-09-18T03:41:05.511Z,93.30
2018-09-18T03:43:33.538Z,93.10
2018-09-18T03:46:02.057Z,92.40
2018-09-18T03:48:30.121Z,92.10
2018-09-18T03:50:58.141Z,92.20
2018-09-18T03:53:26.159Z,93.10
2018-09-18T03:55:54.264Z,93.40
2018-09-18T03:58:22.332Z,93.40
2018-09-18T04:00:50.574Z,93.40
2018-09-18T04:03:18.604Z,93.90
2018-09-18T04:05:46.701Z,93.30
2018-09-18T04:08:14.614Z,93.20
2018-09-18T04:10:42.697Z,92.30
2018-09-18T04:13:10.789Z,91.50
2018-09-18T04:15:40.708Z,91.20
2018-09-18T04:18:10.453Z,90.50
2018-09-18T04:20:39.450Z,91.60
2018-09-18T04:23:07.528Z,91.30
2018-09-18T04:25:35.519Z,91.00
2018-09-18T04:28:03.805Z,92.80
2018-09-18T04:30:32.041Z,92.70
2018-09-18T04:33:00.009Z,92.10
2018-09-18T04:35:28.047Z,93.10
2018-09-18T04:37:56.193Z,92.00
2018-09-18T04:40:24.227Z,92.30
2018-09-18T04:42:52.623Z,91.50
2018-09-18T04:45:20.636Z,91.20
2018-09-18T04:47:48.581Z,91.80
2018-09-18T04:50:16.604Z,92.80
2018-09-18T04:52:44.582Z,93.40
2018-09-18T04:55:12.626Z,92.60
2018-09-18T04:57:41.697Z,91.70
2018-09-18T05:00:09.824Z,91.40
2018-09-18T05:02:38.097Z,91.50
2018-09-18T05:05:06.698Z,91.60
2018-09-18T05:07:34.757Z,91.80
2018-09-18T05:10:02.862Z,91.30
2018-09-18T05:15:01.695Z,91.70
2018-09-18T05:17:29.736Z,91.40
2018-09-18T05:19:57.690Z,91.50
2018-09-18T05:22:25.790Z,92.50
2018-09-18T05:24:53.793Z,92.80
2018-09-18T05:27:21.962Z,93.20
2018-09-18T05:29:49.940Z,93.00
2018-09-18T05:32:18.333Z,93.20
2018-09-18T05:34:46.640Z,93.10
2018-09-18T05:37:15.196Z,93.60
2018-09-18T05:39:43.120Z,93.70
2018-09-18T05:42:11.086Z,94.10
2018-09-18T05:44:39.200Z,92.80
2018-09-18T05:47:07.868Z,91.90
2018-09-18T05:49:35.979Z,93.40
2018-09-18T05:52:04.248Z,94.20
2018-09-18T05:54:32.373Z,94.80
2018-09-18T05:57:00.496Z,94.80
2018-09-18T05:59:29.036Z,95.00
2018-09-18T06:01:56.988Z,94.80
2018-09-18T06:04:25.045Z,95.10
2018-09-18T06:06:53.081Z,94.90
2018-09-18T06:09:21.113Z,94.50
2018-09-18T06:11:49.718Z,93.40
2018-09-18T06:14:17.782Z,92.60
2018-09-18T06:16:45.806Z,91.70
2018-09-18T06:19:13.879Z,91.90
2018-09-18T06:21:41.937Z,91.10
2018-09-18T06:24:10.609Z,90.80
2018-09-18T06:26:38.609Z,91.10
2018-09-18T06:29:06.649Z,90.80
2018-09-18T06:31:34.835Z,91.40
2018-09-18T06:34:02.881Z,90.60
2018-09-18T06:36:31.905Z,90.60
2018-09-18T06:38:59.964Z,92.00
2018-09-18T06:41:28.167Z,91.70
2018-09-18T06:43:57.019Z,90.90
2018-09-18T06:46:24.932Z,90.40
2018-09-18T06:48:52.897Z,90.70
2018-09-18T06:51:20.962Z,91.90
2018-09-18T06:53:49.015Z,91.00
2018-09-18T06:56:17.672Z,90.70
2018-09-18T06:58:45.626Z,90.90
2018-09-18T07:01:13.694Z,90.50
2018-09-18T07:03:42.409Z,90.30
2018-09-18T07:06:10.377Z,90.40
2018-09-18T07:08:38.417Z,90.00
2018-09-18T07:11:06.557Z,89.90
2018-09-18T07:13:34.768Z,90.70
2018-09-18T07:16:03.507Z,90.40
2018-09-18T07:18:32.413Z,90.10
2018-09-18T07:21:01.333Z,90.00
2018-09-18T07:23:29.392Z,90.10
2018-09-18T07:25:57.404Z,91.70
2018-09-18T07:28:25.504Z,91.00
2018-09-18T07:30:53.497Z,90.30
2018-09-18T07:33:21.538Z,91.40
2018-09-18T07:35:49.757Z,90.60
2018-09-18T07:38:17.925Z,90.30
2018-09-18T07:40:45.986Z,90.40
2018-09-18T07:43:14.013Z,90.20
2018-09-18T07:45:42.927Z,90.10
2018-09-18T07:48:11.137Z,91.30
2018-09-18T07:50:39.614Z,90.30
2018-09-18T07:53:07.597Z,90.10
2018-09-18T07:55:35.598Z,90.30
2018-09-18T07:58:03.565Z,90.90
2018-09-18T08:00:31.618Z,90.50
2018-09-18T08:02:59.981Z,91.00
2018-09-18T08:05:27.915Z,90.60
2018-09-18T08:07:56.009Z,90.80
2018-09-18T08:10:24.122Z,90.80
2018-09-18T08:12:52.139Z,90.70
2018-09-18T08:15:21.093Z,90.60
2018-09-18T08:17:49.011Z,90.20
2018-09-18T08:20:17.132Z,90.40
2018-09-18T08:22:45.184Z,90.40
2018-09-18T08:25:14.014Z,90.10
2018-09-18T08:27:42.910Z,89.80
2018-09-18T08:30:10.885Z,89.10
2018-09-18T08:32:38.927Z,88.80
2018-09-18T08:35:06.989Z,88.20
2018-09-18T08:37:35.871Z,88.40
2018-09-18T08:40:04.006Z,87.90
2018-09-18T08:42:32.478Z,87.40
2018-09-18T08:45:00.525Z,87.40
2018-09-18T08:47:28.489Z,86.50
2018-09-18T08:49:57.277Z,86.00
2018-09-18T08:52:25.278Z,86.10
2018-09-18T08:54:53.285Z,86.00
2018-09-18T08:57:22.358Z,84.60
2018-09-18T08:59:50.435Z,85.90
2018-09-18T09:02:18.658Z,84.50
2018-09-18T09:04:46.749Z,85.50
2018-09-18T09:07:14.889Z,84.30
2018-09-18T09:09:42.934Z,83.60
2018-09-18T09:12:10.961Z,83.40
2018-09-18T09:14:38.875Z,82.40
2018-09-18T09:17:06.990Z,83.30
2018-09-18T09:19:35.207Z,82.40
2018-09-18T09:22:03.294Z,82.10
2018-09-18T09:24:31.299Z,80.00
2018-09-18T09:26:59.836Z,81.10
2018-09-18T09:29:27.833Z,79.60
2018-09-18T09:31:56.699Z,81.00
2018-09-18T09:34:24.723Z,80.00
2018-09-18T09:36:52.835Z,79.80
2018-09-18T09:39:20.908Z,79.10
2018-09-18T09:41:48.989Z,79.00
2018-09-18T09:44:17.595Z,78.40
2018-09-18T09:46:45.637Z,74.70
2018-09-18T09:49:13.736Z,75.00
2018-09-18T09:51:41.846Z,75.60
2018-09-18T09:54:09.763Z,76.60
2018-09-18T09:56:37.821Z,75.90
2018-09-18T09:59:05.818Z,76.10
2018-09-18T10:01:39.414Z,77.10
2018-09-18T10:04:07.421Z,76.00
2018-09-18T10:06:35.411Z,73.20
2018-09-18T10:09:06.305Z,74.70
2018-09-18T10:11:35.299Z,74.00
2018-09-18T10:14:03.332Z,73.50
2018-09-18T10:16:31.415Z,73.10
2018-09-18T10:18:59.413Z,73.10
2018-09-18T10:21:27.365Z,73.40
2018-09-18T10:23:55.412Z,73.00
2018-09-18T10:26:23.482Z,73.00
2018-09-18T10:28:51.500Z,73.30
2018-09-18T10:31:19.469Z,72.20
2018-09-18T10:36:15.494Z,69.90
2018-09-18T10:38:43.455Z,70.70
2018-09-18T10:41:12.514Z,69.50
2018-09-18T10:43:40.294Z,70.00
2018-09-18T10:46:08.281Z,71.30
2018-09-18T10:48:41.766Z,71.40
2018-09-18T10:51:09.826Z,72.10
2018-09-18T10:53:37.981Z,69.40
2018-09-18T10:56:06.005Z,71.70
2018-09-18T10:58:33.895Z,70.80
2018-09-18T11:01:01.851Z,69.60
2018-09-18T11:03:29.834Z,68.20
2018-09-18T11:05:57.938Z,67.40
2018-09-18T11:08:25.961Z,67.50
2018-09-18T11:10:53.862Z,66.70
2018-09-18T11:13:21.975Z,68.20
2018-09-18T11:15:50.081Z,68.20
2018-09-18T11:18:18.160Z,67.60
2018-09-18T11:20:46.277Z,67.20
2018-09-18T11:23:14.239Z,66.70
2018-09-18T11:25:42.245Z,67.80
2018-09-18T11:28:10.176Z,67.60
2018-09-18T11:30:38.210Z,67.80
2018-09-18T11:33:06.210Z,67.90
2018-09-18T11:35:34.203Z,68.20
2018-09-18T11:38:02.184Z,62.60
2018-09-18T11:40:30.212Z,64.30
2018-09-18T11:42:58.360Z,65.50
2018-09-18T11:45:27.146Z,66.30
2018-09-18T11:47:55.076Z,63.10
2018-09-18T11:50:23.026Z,63.80
2018-09-18T11:52:51.211Z,61.30
2018-09-18T11:55:19.236Z,60.00
2018-09-18T11:57:47.845Z,64.20
2018-09-18T12:00:16.023Z,62.80
2018-09-18T12:02:44.460Z,63.50
2018-09-18T12:05:12.581Z,65.00
2018-09-18T12:07:40.621Z,65.40
2018-09-18T12:10:08.683Z,64.20
2018-09-18T12:12:37.151Z,61.60
2018-09-18T12:15:05.225Z,61.70
2018-09-18T12:17:33.188Z,60.90
2018-09-18T12:20:01.241Z,61.70
2018-09-18T12:22:29.346Z,61.80
2018-09-18T12:24:57.501Z,61.10
2018-09-18T12:29:53.255Z,62.00
2018-09-18T12:32:21.272Z,62.20
2018-09-18T12:34:49.193Z,63.10
2018-09-18T12:37:17.194Z,63.40
2018-09-18T12:39:45.076Z,63.20
2018-09-18T12:42:13.192Z,62.80
2018-09-18T12:44:41.143Z,62.50
2018-09-18T12:47:09.097Z,60.60
2018-09-18T12:49:37.549Z,60.90
2018-09-18T12:52:05.434Z,60.40
2018-09-18T12:54:33.449Z,60.10
2018-09-18T12:57:01.621Z,60.50
2018-09-18T12:59:29.579Z,59.10
2018-09-18T13:01:57.494Z,59.60
2018-09-18T13:04:25.492Z,56.70
2018-09-18T13:06:54.438Z,59.20
2018-09-18T13:09:22.386Z,59.40
2018-09-18T13:11:50.443Z,59.10
2018-09-18T13:14:18.543Z,57.30
2018-09-18T13:16:46.403Z,56.50
2018-09-18T13:19:14.436Z,57.10
2018-09-18T13:21:42.482Z,57.50
2018-09-18T13:24:10.543Z,58.70
2018-09-18T13:26:38.619Z,56.80
2018-09-18T13:29:06.627Z,58.20
2018-09-18T13:31:34.566Z,57.80
2018-09-18T13:34:02.573Z,57.60
2018-09-18T13:38:58.716Z,54.00
2018-09-18T13:41:27.255Z,53.30
2018-09-18T13:46:24.045Z,53.10
2018-09-18T13:48:51.989Z,51.20
2018-09-18T13:51:19.994Z,47.70
2018-09-18T13:58:44.103Z,47.30
2018-09-18T14:01:12.256Z,48.60
2018-09-18T14:03:40.181Z,44.40
2018-09-18T14:06:08.453Z,47.60
2018-09-18T14:08:36.390Z,44.50
2018-09-18T14:11:04.315Z,44.30
2018-09-18T14:13:32.314Z,47.40
2018-09-18T14:16:00.271Z,44.10
2018-09-18T14:18:28.329Z,46.10
2018-09-18T14:20:56.398Z,44.70
2018-09-18T14:23:24.438Z,45.00
2018-09-18T14:25:52.409Z,45.90
2018-09-18T14:28:20.420Z,45.90
2018-09-18T14:30:48.401Z,44.40
2018-09-18T14:33:16.441Z,43.70
2018-09-18T14:35:44.305Z,43.20
2018-09-18T14:38:12.316Z,43.30
2018-09-18T14:40:40.221Z,43.70
2018-09-18T14:43:08.165Z,44.40
2018-09-18T14:45:36.106Z,45.10
2018-09-18T14:48:04.098Z,44.60
2018-09-18T14:50:32.096Z,44.90
2018-09-18T14:53:00.205Z,43.80
2018-09-18T14:55:28.221Z,43.50
2018-09-18T14:57:56.221Z,43.40
2018-09-18T15:00:24.170Z,42.60
2018-09-18T15:02:52.191Z,41.70
2018-09-18T15:05:20.142Z,43.30
2018-09-18T15:07:48.299Z,42.30
2018-09-18T15:10:16.297Z,41.70
2018-09-18T15:12:44.454Z,41.90
2018-09-18T15:15:12.469Z,42.40
2018-09-18T15:17:40.420Z,39.60
2018-09-18T15:20:08.617Z,41.10
2018-09-18T15:22:36.688Z,40.70
2018-09-18T15:25:04.864Z,41.10
2018-09-18T15:27:32.854Z,40.30
2018-09-18T15:30:00.856Z,39.00
2018-09-18T15:32:28.785Z,38.60
2018-09-18T15:34:56.826Z,37.70
2018-09-18T15:37:24.789Z,38.00
2018-09-18T15:39:52.981Z,38.40
2018-09-18T15:42:20.941Z,39.90
2018-09-18T15:44:49.453Z,38.70
2018-09-18T15:47:17.507Z,38.80
2018-09-18T15:49:45.582Z,40.40
2018-09-18T15:52:13.734Z,40.90
2018-09-18T15:54:41.756Z,40.90
2018-09-18T15:57:09.785Z,40.90
2018-09-18T15:59:38.789Z,39.40
2018-09-18T16:02:07.200Z,40.20
2018-09-18T16:04:35.406Z,39.90
2018-09-18T16:07:03.983Z,38.90
2018-09-18T16:09:32.230Z,38.90
2018-09-18T16:12:00.291Z,39.10
2018-09-18T16:14:28.454Z,41.50
2018-09-18T16:16:57.176Z,41.80
2018-09-18T16:19:25.173Z,41.80
2018-09-18T16:21:54.184Z,41.90
2018-09-18T16:24:22.177Z,42.70
2018-09-18T16:26:50.341Z,43.30
2018-09-18T16:29:18.297Z,43.10
2018-09-18T16:31:46.726Z,43.50
2018-09-18T16:34:14.781Z,43.90
2018-09-18T16:36:42.962Z,44.10
2018-09-18T16:39:11.205Z,44.10
2018-09-18T16:41:39.346Z,44.20
2018-09-18T16:44:07.698Z,45.00
2018-09-18T16:46:36.127Z,45.80
2018-09-18T16:49:04.290Z,46.40
2018-09-18T16:51:32.709Z,46.70
2018-09-18T16:54:00.829Z,46.70
2018-09-18T16:56:29.190Z,46.60
2018-09-18T16:58:57.206Z,47.00
2018-09-18T17:01:25.236Z,48.00
2018-09-18T17:03:53.676Z,49.10
2018-09-18T17:06:23.099Z,49.70
2018-09-18T17:08:52.344Z,50.00
2018-09-18T17:11:21.149Z,50.30
2018-09-18T17:13:49.153Z,50.10
2018-09-18T17:16:17.194Z,51.20
2018-09-18T17:26:09.857Z,53.50
2018-09-18T17:28:38.690Z,54.10
2018-09-18T17:31:06.910Z,54.10
2018-09-18T17:33:35.042Z,53.50
2018-09-18T17:36:04.229Z,53.90
2018-09-18T17:38:32.325Z,54.30
2018-09-18T17:41:00.531Z,54.50
2018-09-18T17:43:28.709Z,56.80
2018-09-18T17:45:56.841Z,57.50
2018-09-18T17:48:25.540Z,56.70
2018-09-18T17:50:57.721Z,56.00
2018-09-18T17:53:25.734Z,58.30
2018-09-18T17:55:53.839Z,56.50
2018-09-18T17:58:22.372Z,58.30
2018-09-18T18:00:50.800Z,57.70
2018-09-18T18:03:19.043Z,57.70
2018-09-18T18:05:47.124Z,60.50
2018-09-18T18:08:15.297Z,59.80
2018-09-18T18:10:43.548Z,59.10
2018-09-18T18:13:12.128Z,59.90
2018-09-18T18:15:40.093Z,60.60
2018-09-18T18:18:08.264Z,61.20
2018-09-18T18:20:37.245Z,63.50
2018-09-18T18:23:05.141Z,63.50
2018-09-18T18:25:33.317Z,64.00
2018-09-18T18:28:01.332Z,64.40
2018-09-18T18:30:29.357Z,62.90
2018-09-18T18:32:57.410Z,66.00
2018-09-18T18:35:26.549Z,67.40
2018-09-18T18:37:55.154Z,67.50
2018-09-18T18:40:23.189Z,66.20
2018-09-18T18:42:51.209Z,65.90
2018-09-18T18:45:19.219Z,66.10
2018-09-18T18:47:47.416Z,67.60
2018-09-18T18:50:15.282Z,69.20
2018-09-18T18:52:44.701Z,72.50
2018-09-18T18:55:12.757Z,71.90
2018-09-18T18:57:40.942Z,68.70
2018-09-18T19:00:10.564Z,68.70
2018-09-18T19:02:41.366Z,71.60
2018-09-18T19:05:09.497Z,73.60
2018-09-18T19:07:38.218Z,74.80
2018-09-18T19:10:06.223Z,74.90
2018-09-18T19:12:34.777Z,73.50
2018-09-18T19:15:03.977Z,73.70
2018-09-18T19:17:32.245Z,71.80
2018-09-18T19:20:00.514Z,73.20
2018-09-18T19:22:28.608Z,73.70
2018-09-18T19:24:57.590Z,73.70
2018-09-18T19:27:25.584Z,73.60
2018-09-18T19:29:53.750Z,72.00
2018-09-18T19:32:21.742Z,75.30
2018-09-18T19:34:49.763Z,75.50
2018-09-18T19:37:17.781Z,77.30
2018-09-18T19:39:46.699Z,76.40
2018-09-18T19:42:14.777Z,79.50
2018-09-18T19:44:44.058Z,82.30
2018-09-18T19:47:13.124Z,84.30
2018-09-18T19:49:41.472Z,84.10
2018-09-18T19:52:10.642Z,84.60
2018-09-18T19:54:39.253Z,83.90
2018-09-18T19:57:07.625Z,84.70
2018-09-18T19:59:35.687Z,80.80
2018-09-18T20:02:03.735Z,77.20
2018-09-18T20:04:33.047Z,79.00
2018-09-18T20:07:01.029Z,81.20
2018-09-18T20:09:30.032Z,83.40
2018-09-18T20:11:58.966Z,83.70
2018-09-18T20:14:27.352Z,83.20
2018-09-18T20:16:55.344Z,80.80
2018-09-18T20:19:24.024Z,78.40
2018-09-18T20:21:52.813Z,80.50
2018-09-18T20:24:20.951Z,77.80
2018-09-18T20:26:48.957Z,81.80
2018-09-18T20:29:17.925Z,81.10
2018-09-18T20:31:45.988Z,81.50
2018-09-18T20:34:14.078Z,81.80
2018-09-18T20:36:42.432Z,84.10
2018-09-18T20:39:11.931Z,83.70
2018-09-18T20:41:39.993Z,82.90
2018-09-18T20:44:08.012Z,81.50
2018-09-18T20:46:36.521Z,80.30
2018-09-18T20:51:33.067Z,80.90
2018-09-18T20:54:00.997Z,80.20
2018-09-18T20:56:29.502Z,80.60
2018-09-18T20:58:57.546Z,81.40
2018-09-18T21:01:26.096Z,85.00
2018-09-18T21:03:54.039Z,86.50
2018-09-18T21:06:22.050Z,85.90
2018-09-18T21:08:50.137Z,84.50
2018-09-18T21:11:19.133Z,82.50
2018-09-18T21:13:47.154Z,81.90
2018-09-18T21:16:15.134Z,80.70
2018-09-18T21:18:44.200Z,78.40
2018-09-18T21:21:12.151Z,76.80
2018-09-18T21:23:40.113Z,75.40
2018-09-18T21:26:09.533Z,74.10
2018-09-18T21:28:38.340Z,73.10
2018-09-18T21:31:06.753Z,72.20
2018-09-18T21:33:34.724Z,72.60
2018-09-18T21:36:02.912Z,73.40
2018-09-18T21:38:32.132Z,73.20
2018-09-18T21:41:00.180Z,73.80
2018-09-18T21:43:29.451Z,73.90
2018-09-18T21:45:57.392Z,74.40
2018-09-18T21:48:25.502Z,74.80
2018-09-18T21:53:21.355Z,74.20
2018-09-18T21:58:17.201Z,72.90
2018-09-18T22:00:45.526Z,73.00
2018-09-18T22:03:13.606Z,73.10
2018-09-18T22:05:41.552Z,73.70
2018-09-18T22:08:09.623Z,73.50
2018-09-18T22:10:37.772Z,73.90
2018-09-18T22:13:05.938Z,73.60
2018-09-18T22:15:33.991Z,74.70
2018-09-18T22:18:02.819Z,74.20
2018-09-18T22:20:30.937Z,74.20
2018-09-18T22:22:58.856Z,74.70
2018-09-18T22:25:27.585Z,74.80
2018-09-18T22:27:55.561Z,75.00
2018-09-18T22:30:24.611Z,75.70
2018-09-18T22:32:52.598Z,75.30
2018-09-18T22:35:20.669Z,75.60
2018-09-18T22:37:49.577Z,75.70
2018-09-18T22:40:17.565Z,75.40
2018-09-18T22:42:46.064Z,75.30
2018-09-18T22:45:14.731Z,75.10
2018-09-18T22:47:44.081Z,75.50
2018-09-18T22:50:12.749Z,75.50
2018-09-18T22:52:40.828Z,75.50
2018-09-18T22:55:08.987Z,76.20
2018-09-18T22:57:36.936Z,75.20
2018-09-18T23:00:05.721Z,76.50
2018-09-18T23:02:33.785Z,76.50
2018-09-18T23:05:01.797Z,77.20
2018-09-18T23:07:29.785Z,77.80
2018-09-18T23:09:57.753Z,77.80
2018-09-18T23:12:26.853Z,78.10
2018-09-18T23:14:54.800Z,79.00
2018-09-18T23:17:22.904Z,79.60
2018-09-18T23:19:50.880Z,79.80
2018-09-18T23:22:18.924Z,79.70
2018-09-18T23:24:47.438Z,79.80
2018-09-18T23:27:15.639Z,79.80
2018-09-18T23:29:43.610Z,80.20
2018-09-18T23:32:11.609Z,79.30
2018-09-18T23:34:40.398Z,79.70
2018-09-18T23:37:09.874Z,80.10
2018-09-18T23:39:37.919Z,80.30
2018-09-18T23:42:05.943Z,80.20
2018-09-18T23:44:33.972Z,80.50
2018-09-18T23:47:02.048Z,80.20
2018-09-18T23:49:30.059Z,79.90
2018-09-18T23:51:58.489Z,79.30
2018-09-18T23:54:27.779Z,80.60
2018-09-18T23:56:55.783Z,80.80
2018-09-18T23:59:24.657Z,80.90
